ADDS METAR Data INFO
IDs: Format: Raw Decoded Include TAF

Data at: 0156 UTC 17 Oct 2017

KHUL 170153Z AUTO 03004KT 10SM CLR 02/01 A3005 RMK AO2 SLP182 T00170006
KHUL 170053Z AUTO 34003KT 10SM CLR 03/01 A3003 RMK AO2 SLP175 T00280006
KHUL 162353Z AUTO 01007KT 10SM CLR 04/01 A3001 RMK AO2 SLP168 T00390006 10100 20039 51020
KHUL 162253Z AUTO 36008KT 10SM OVC045 06/01 A3000 RMK AO2 SLP162 T00560011
KHUL 162153Z AUTO 34006KT 10SM OVC044 07/01 A2997 RMK AO2 SLP152 T00670006
KHUL 162053Z AUTO 35007KT 10SM OVC035 07/01 A2995 RMK AO2 SLP146 T00720006 51021
KHUL 161953Z AUTO 34008KT 10SM OVC034 08/01 A2994 RMK AO2 SLP139 T00780011
KHUL 161853Z AUTO 35012KT 10SM OVC034 09/02 A2991 RMK AO2 SLP130 T00890017
KHUL 161753Z AUTO 33011KT 10SM OVC036 09/02 A2989 RMK AO2 SLP123 T00940017 10111 20072 51019
KHUL 161653Z AUTO 33010G18KT 10SM OVC034 09/02 A2987 RMK AO2 SLP118 T00940022
KHUL 161553Z AUTO 32009G20KT 10SM OVC033 09/02 A2986 RMK AO2 SLP112 T00940022
KHUL 161453Z AUTO 33013G22KT 10SM OVC032 08/02 A2983 RMK AO2 SLP104 T00830017 51025
KHUL 161353Z AUTO 34011G23KT 310V010 10SM FEW033 09/02 A2982 RMK AO2 PK WND 36026/1336 SLP099 T00890017
KHUL 161345Z AUTO 35018G26KT 10SM SCT031 09/02 A2980 RMK AO2 PK WND 36026/1336 T00890017
KHUL 161253Z AUTO 31009G18KT 10SM OVC025 07/03 A2979 RMK AO2 SLP091 T00720033
KHUL 161153Z AUTO 33009G17KT 10SM OVC019 08/05 A2976 RMK AO2 PRESRR SLP079 60002 70003 T00830050 10183 20083 51073
KHUL 161053Z AUTO 34008G15KT 10SM SCT015 BKN020 OVC027 10/09 A2969 RMK AO2 RAB25E43 PRESRR SLP054 P0000 T01000089
KHUL 161009Z AUTO 28010G21KT 10SM BKN024 12/08 A2963 RMK AO2 T01220083
KHUL 160953Z AUTO 27012G16KT 10SM FEW028 13/08 A2962 RMK AO2 PK WND 29031/0857 PRESRR SLP030 T01280083
KHUL 160853Z AUTO 28017G28KT 10SM FEW024 SCT029 BKN036 16/12 A2954 RMK AO2 PK WND 31028/0848 RAB0755E09 SLP004 P0000 60002 T01610122 53034
KHUL 160753Z AUTO 24009G21KT 10SM BKN040 OVC050 17/14 A2948 RMK AO2 RAB0655E10B38E52 SLP984 P0002 T01670144
KHUL 160653Z AUTO 22010KT 10SM FEW016 BKN038 OVC085 18/17 A2944 RMK AO2 RAB0556E10 SLP968 P0000 T01830167
KHUL 160645Z AUTO 22007KT 10SM FEW016 BKN042 OVC049 18/17 A2943 RMK AO2 RAB0556E10 P0000 T01830167
KHUL 160614Z AUTO 21007KT 10SM BKN016 OVC020 18/17 A2944 RMK AO2 RAB0556E10 P0000 T01830172
KHUL 160553Z AUTO 23006KT 10SM OVC013 18/17 A2944 RMK AO2 SLP969 60000 T01780172 10194 20178 51006
KHUL 160528Z AUTO 24004KT 10SM OVC014 18/17 A2944 RMK AO2 T01780167
KHUL 160453Z AUTO 24005KT 10SM BKN018 BKN023 OVC110 18/17 A2944 RMK AO2 PK WND 23026/0408 RAB07E31 SLP969 P0000 T01780167 401940083
KHUL 160429Z AUTO 23008KT 10SM -RA FEW017 SCT025 OVC048 18/17 A2944 RMK AO2 PK WND 23026/0408 RAB07 P0000 T01830172
KHUL 160353Z AUTO 22016G25KT 10SM BKN017 OVC047 19/17 A2944 RMK AO2 PK WND 21029/0324 SLP968 T01940167
KHUL 160253Z AUTO 21009G25KT 10SM OVC016 19/17 A2942 RMK AO2 PK WND 19026/0235 SLP964 T01940167 56030
KHUL 160153Z AUTO 19013G21KT 10SM OVC016 19/17 A2944 RMK AO2 SLP971 T01890167
KHUL 160125Z AUTO 21010G20KT 10SM OVC015 18/16 A2946 RMK AO2 T01830161
KHUL 160053Z AUTO 20012G21KT 10SM OVC014 18/16 A2948 RMK AO2 SLP982 T01830161
KHUL 160018Z AUTO 20009G22KT 10SM OVC014 18/16 A2950 RMK AO2 T01780161
KHUL 152353Z AUTO 19011G19KT 10SM OVC015 18/16 A2951 RMK AO2 PK WND 19026/2305 SLP995 T01780156 10183 20172 56028
KHUL 152253Z AUTO 20015G22KT 10SM OVC016 18/15 A2954 RMK AO2 SLP005 T01780150
KHUL 152153Z AUTO 20011G23KT 10SM OVC017 18/15 A2957 RMK AO2 SLP014 T01780150
KHUL 152053Z AUTO 20015G22KT 10SM OVC020 18/15 A2960 RMK AO2 SLP025 T01780150 58042
KHUL 151953Z AUTO 19010G19KT 10SM OVC018 17/15 A2964 RMK AO2 SLP039 T01720150
KHUL 151853Z AUTO 19009G20KT 10SM OVC026 18/14 A2968 RMK AO2 PRESFR SLP053 T01780139
KHUL 151753Z AUTO 18013G22KT 10SM BKN028 OVC035 18/13 A2973 RMK AO2 PK WND 18026/1720 SLP067 60001 T01830133 10183 20128 58070
KHUL 151700Z AUTO 16009G20KT 10SM SCT024 SCT032 OVC039 17/14 A2978 RMK AO2 PRESFR T01670139
KHUL 151653Z AUTO 17011G20KT 10SM FEW021 BKN028 OVC039 16/14 A2979 RMK AO2 RAB12E21B25E37 PRESFR SLP091 P0000 T01610139
KHUL 151621Z AUTO VRB05KT 10SM BKN025 OVC049 16/13 A2984 RMK AO2 RAB12E21 PRESFR P0000 T01560133
KHUL 151553Z AUTO 16007KT 10SM FEW020 BKN055 OVC065 14/13 A2988 RMK AO2 RAB1456E35 SLP118 P0000 T01440133
KHUL 151453Z AUTO 14009KT 10SM SCT047 OVC055 13/13 A2994 RMK AO2 SLP139 60001 T01330128 58039